createdAt,value
2022-10-29T00:00:29.000Z,99053
2022-10-29T00:02:35.000Z,99054
2022-10-29T00:04:02.000Z,99052
2022-10-29T00:06:08.000Z,99053
2022-10-29T00:07:34.000Z,99051
2022-10-29T00:09:40.000Z,99051
2022-10-29T00:11:07.000Z,99055
2022-10-29T00:13:13.000Z,99058
2022-10-29T00:14:40.000Z,99056
2022-10-29T00:16:46.000Z,99066
2022-10-29T00:18:12.000Z,99068
2022-10-29T00:20:18.000Z,99065
2022-10-29T00:21:45.000Z,99064
2022-10-29T00:23:51.000Z,99066
2022-10-29T00:25:17.000Z,99063
2022-10-29T00:27:24.000Z,99062
2022-10-29T00:28:50.000Z,99062
2022-10-29T00:30:56.000Z,99059
2022-10-29T00:33:47.000Z,99062
2022-10-29T00:35:14.000Z,99062
2022-10-29T00:37:20.000Z,99064
2022-10-29T00:38:46.000Z,99062
2022-10-29T00:40:52.000Z,99063
2022-10-29T00:42:19.000Z,99064
2022-10-29T00:44:25.000Z,99063
2022-10-29T00:45:52.000Z,99060
2022-10-29T00:47:58.000Z,99062
2022-10-29T00:49:25.000Z,99071
2022-10-29T00:51:31.000Z,99073
2022-10-29T00:52:58.000Z,99074
2022-10-29T00:55:04.000Z,99072
2022-10-29T00:56:30.000Z,99071
2022-10-29T00:58:36.000Z,99071
2022-10-29T01:00:03.000Z,99073
2022-10-29T01:02:09.000Z,99068
2022-10-29T01:03:36.000Z,99067
2022-10-29T01:05:42.000Z,99068
2022-10-29T01:07:08.000Z,99065
2022-10-29T01:09:14.000Z,99060
2022-10-29T01:12:06.000Z,99060
2022-10-29T01:13:32.000Z,99058
2022-10-29T01:15:38.000Z,99063
2022-10-29T01:17:05.000Z,99059
2022-10-29T01:19:11.000Z,99062
2022-10-29T01:20:38.000Z,99064
2022-10-29T01:22:44.000Z,99067
2022-10-29T01:24:10.000Z,99068
2022-10-29T01:26:16.000Z,99063
2022-10-29T01:27:43.000Z,99062
2022-10-29T01:29:49.000Z,99060
2022-10-29T01:31:15.000Z,99060
2022-10-29T01:33:21.000Z,99060
2022-10-29T01:34:48.000Z,99056
2022-10-29T01:36:54.000Z,99058
2022-10-29T01:38:20.000Z,99055
2022-10-29T01:40:27.000Z,99059
2022-10-29T01:41:53.000Z,99062
2022-10-29T01:43:59.000Z,99068
2022-10-29T01:45:26.000Z,99071
2022-10-29T01:47:32.000Z,99072
2022-10-29T01:50:23.000Z,99073
2022-10-29T01:51:49.000Z,99068
2022-10-29T01:53:56.000Z,99063
2022-10-29T01:55:22.000Z,99061
2022-10-29T01:57:28.000Z,99059
2022-10-29T01:58:55.000Z,99062
2022-10-29T02:01:01.000Z,99057
2022-10-29T02:02:27.000Z,99056
2022-10-29T02:04:34.000Z,99055
2022-10-29T02:06:00.000Z,99057
2022-10-29T02:08:06.000Z,99047
2022-10-29T02:09:33.000Z,99051
2022-10-29T02:11:39.000Z,99053
2022-10-29T02:13:05.000Z,99056
2022-10-29T02:15:11.000Z,99056
2022-10-29T02:16:38.000Z,99057
2022-10-29T02:18:44.000Z,99054
2022-10-29T02:20:10.000Z,99052
2022-10-29T02:22:17.000Z,99050
2022-10-29T02:23:43.000Z,99046
2022-10-29T02:25:49.000Z,99050
2022-10-29T02:28:41.000Z,99052
2022-10-29T02:30:07.000Z,99048
2022-10-29T02:32:13.000Z,99049
2022-10-29T02:33:40.000Z,99048
2022-10-29T02:35:46.000Z,99050
2022-10-29T02:37:12.000Z,99052
2022-10-29T02:39:18.000Z,99050
2022-10-29T02:40:45.000Z,99046
2022-10-29T02:42:51.000Z,99046
2022-10-29T02:44:18.000Z,99047
2022-10-29T02:46:24.000Z,99043
2022-10-29T02:47:50.000Z,99040
2022-10-29T02:49:56.000Z,99037
2022-10-29T02:51:23.000Z,99040
2022-10-29T02:53:29.000Z,99039
2022-10-29T02:54:56.000Z,99041
2022-10-29T02:57:02.000Z,99040
2022-10-29T02:58:28.000Z,99038
2022-10-29T03:00:34.000Z,99033
2022-10-29T03:02:01.000Z,99039
2022-10-29T03:04:07.000Z,99031
2022-10-29T03:06:58.000Z,99031
2022-10-29T03:08:25.000Z,99030
2022-10-29T03:10:31.000Z,99032
2022-10-29T03:11:57.000Z,99031
2022-10-29T03:14:03.000Z,99027
2022-10-29T03:15:30.000Z,99032
2022-10-29T03:17:36.000Z,99032
2022-10-29T03:19:03.000Z,99033
2022-10-29T03:21:09.000Z,99037
2022-10-29T03:22:35.000Z,99035
2022-10-29T03:24:41.000Z,99036
2022-10-29T03:26:08.000Z,99036
2022-10-29T03:28:14.000Z,99034
2022-10-29T03:29:40.000Z,99036
2022-10-29T03:31:47.000Z,99035
2022-10-29T03:33:13.000Z,99033
2022-10-29T03:35:19.000Z,99038
2022-10-29T03:36:46.000Z,99035
2022-10-29T03:38:52.000Z,99039
2022-10-29T03:40:18.000Z,99034
2022-10-29T03:42:24.000Z,99037
2022-10-29T03:45:16.000Z,99041
2022-10-29T03:46:42.000Z,99048
2022-10-29T03:48:48.000Z,99043
2022-10-29T03:50:15.000Z,99048
2022-10-29T03:52:21.000Z,99045
2022-10-29T03:53:47.000Z,99048
2022-10-29T03:55:53.000Z,99049
2022-10-29T03:57:20.000Z,99048
2022-10-29T03:59:26.000Z,99046
2022-10-29T04:00:52.000Z,99045
2022-10-29T04:02:59.000Z,99043
2022-10-29T04:04:26.000Z,99043
2022-10-29T04:06:32.000Z,99040
2022-10-29T04:07:59.000Z,99038
2022-10-29T04:10:05.000Z,99034
2022-10-29T04:11:31.000Z,99036
2022-10-29T04:13:37.000Z,99034
2022-10-29T04:15:04.000Z,99036
2022-10-29T04:17:10.000Z,99035
2022-10-29T04:18:37.000Z,99039
2022-10-29T04:20:43.000Z,99035
2022-10-29T04:28:42.000Z,99047
2022-10-29T04:30:49.000Z,99051
2022-10-29T04:32:16.000Z,99051
2022-10-29T04:34:22.000Z,99053
2022-10-29T04:35:49.000Z,99056
2022-10-29T04:37:55.000Z,99060
2022-10-29T04:39:22.000Z,99060
2022-10-29T04:41:29.000Z,99061
2022-10-29T04:42:56.000Z,99059
2022-10-29T04:45:02.000Z,99060
2022-10-29T04:46:29.000Z,99065
2022-10-29T04:48:35.000Z,99062
2022-10-29T04:50:02.000Z,99062
2022-10-29T04:52:08.000Z,99064
2022-10-29T04:53:34.000Z,99061
2022-10-29T04:55:40.000Z,99059
2022-10-29T04:57:07.000Z,99062
2022-10-29T04:59:13.000Z,99066
2022-10-29T05:00:40.000Z,99062
2022-10-29T05:02:46.000Z,99061
2022-10-29T05:05:37.000Z,99062
2022-10-29T05:07:03.000Z,99062
2022-10-29T05:09:10.000Z,99061
2022-10-29T05:10:36.000Z,99061
2022-10-29T05:12:42.000Z,99060
2022-10-29T05:14:09.000Z,99056
2022-10-29T05:16:15.000Z,99051
2022-10-29T05:17:41.000Z,99049
2022-10-29T05:19:47.000Z,99042
2022-10-29T05:21:14.000Z,99039
2022-10-29T05:23:20.000Z,99033
2022-10-29T05:24:47.000Z,99034
2022-10-29T05:26:53.000Z,99031
2022-10-29T05:28:19.000Z,99025
2022-10-29T05:30:25.000Z,99020
2022-10-29T05:31:52.000Z,99013
2022-10-29T05:33:58.000Z,99011
2022-10-29T05:35:25.000Z,99011
2022-10-29T05:37:31.000Z,99018
2022-10-29T05:38:57.000Z,99023
2022-10-29T05:41:04.000Z,99023
2022-10-29T05:43:55.000Z,99027
2022-10-29T05:45:21.000Z,99025
2022-10-29T05:47:27.000Z,99024
2022-10-29T05:48:54.000Z,99017
2022-10-29T05:51:00.000Z,99013
2022-10-29T05:52:26.000Z,99017
2022-10-29T05:54:33.000Z,99023
2022-10-29T05:55:59.000Z,99024
2022-10-29T05:58:05.000Z,99031
2022-10-29T05:59:32.000Z,99030
2022-10-29T06:01:39.000Z,99028
2022-10-29T06:03:06.000Z,99026
2022-10-29T06:05:13.000Z,99026
2022-10-29T06:06:39.000Z,99020
2022-10-29T06:08:46.000Z,99026
2022-10-29T06:10:12.000Z,99021
2022-10-29T06:12:18.000Z,99014
2022-10-29T06:13:45.000Z,99017
2022-10-29T06:15:51.000Z,99020
2022-10-29T06:17:17.000Z,99017
2022-10-29T06:19:23.000Z,99016
2022-10-29T06:22:14.000Z,99022
2022-10-29T06:23:41.000Z,99020
2022-10-29T06:25:47.000Z,99020
2022-10-29T06:27:13.000Z,99019
2022-10-29T06:29:19.000Z,99016
2022-10-29T06:30:46.000Z,99018
2022-10-29T06:32:52.000Z,99016
2022-10-29T06:34:19.000Z,99012
2022-10-29T06:36:25.000Z,99012
2022-10-29T06:37:51.000Z,99010
2022-10-29T06:39:58.000Z,99013
2022-10-29T06:41:24.000Z,99010
2022-10-29T06:43:30.000Z,99012
2022-10-29T06:44:57.000Z,99009
2022-10-29T06:47:03.000Z,99007
2022-10-29T06:48:29.000Z,99005
2022-10-29T06:50:36.000Z,99007
2022-10-29T06:52:02.000Z,99004
2022-10-29T06:54:08.000Z,99007
2022-10-29T06:55:35.000Z,99010
2022-10-29T06:57:41.000Z,99010
2022-10-29T07:00:32.000Z,99004
2022-10-29T07:01:59.000Z,99004
2022-10-29T07:04:05.000Z,99002
2022-10-29T07:05:32.000Z,99000
2022-10-29T07:07:38.000Z,99006
2022-10-29T07:09:04.000Z,99011
2022-10-29T07:11:10.000Z,99013
2022-10-29T07:12:37.000Z,99011
2022-10-29T07:14:43.000Z,99012
2022-10-29T07:16:10.000Z,99013
2022-10-29T07:18:16.000Z,99012
2022-10-29T07:19:42.000Z,99010
2022-10-29T07:21:48.000Z,99008
2022-10-29T07:23:15.000Z,99009
2022-10-29T07:25:21.000Z,99011
2022-10-29T07:26:48.000Z,99015
2022-10-29T07:28:54.000Z,99014
2022-10-29T07:30:20.000Z,99014
2022-10-29T07:32:27.000Z,99014
2022-10-29T07:33:53.000Z,99011
2022-10-29T07:35:59.000Z,99015
2022-10-29T07:38:51.000Z,99017
2022-10-29T07:40:17.000Z,99018
2022-10-29T07:42:23.000Z,99015
2022-10-29T07:43:50.000Z,99016
2022-10-29T07:45:56.000Z,99020
2022-10-29T07:47:22.000Z,99015
2022-10-29T07:49:29.000Z,99018
2022-10-29T07:50:55.000Z,99016
2022-10-29T07:53:01.000Z,99015
2022-10-29T07:54:28.000Z,99013
2022-10-29T07:56:34.000Z,99013
2022-10-29T07:58:00.000Z,99014
2022-10-29T08:00:07.000Z,99015
2022-10-29T08:01:33.000Z,99021
2022-10-29T08:03:39.000Z,99016
2022-10-29T08:05:06.000Z,99015
2022-10-29T08:07:12.000Z,99020
2022-10-29T08:08:39.000Z,99019
2022-10-29T08:10:45.000Z,99025
2022-10-29T08:12:11.000Z,99024
2022-10-29T08:14:17.000Z,99026
2022-10-29T08:17:13.000Z,99029
2022-10-29T08:18:40.000Z,99027
2022-10-29T08:20:46.000Z,99028
2022-10-29T08:22:12.000Z,99024
2022-10-29T08:24:18.000Z,99019
2022-10-29T08:25:45.000Z,99018
2022-10-29T08:27:51.000Z,99015
2022-10-29T08:29:17.000Z,99015
2022-10-29T08:31:24.000Z,99016
2022-10-29T08:32:50.000Z,99010
2022-10-29T08:34:56.000Z,99013
2022-10-29T08:36:23.000Z,99011
2022-10-29T08:38:29.000Z,99013
2022-10-29T08:39:55.000Z,99009
2022-10-29T08:42:02.000Z,99012
2022-10-29T08:43:28.000Z,99009
2022-10-29T08:45:34.000Z,99009
2022-10-29T08:47:01.000Z,99004
2022-10-29T08:49:12.000Z,99004
2022-10-29T08:50:39.000Z,99008
2022-10-29T08:52:45.000Z,99012
2022-10-29T08:55:56.000Z,99008
2022-10-29T08:57:22.000Z,99010
2022-10-29T08:59:28.000Z,99010
2022-10-29T09:00:55.000Z,99011
2022-10-29T09:03:01.000Z,99011
2022-10-29T09:04:27.000Z,99009
2022-10-29T09:06:33.000Z,99009
2022-10-29T09:08:00.000Z,99006
2022-10-29T09:10:08.000Z,99006
2022-10-29T09:11:35.000Z,99005
2022-10-29T09:13:41.000Z,99003
2022-10-29T09:15:07.000Z,99003
2022-10-29T09:17:13.000Z,99000
2022-10-29T09:18:42.000Z,98998
2022-10-29T09:20:48.000Z,98997
2022-10-29T09:22:14.000Z,98997
2022-10-29T09:24:21.000Z,99005
2022-10-29T09:25:47.000Z,99014
2022-10-29T09:27:53.000Z,99012
2022-10-29T09:29:20.000Z,99007
2022-10-29T09:31:26.000Z,99014
2022-10-29T09:34:18.000Z,99015
2022-10-29T09:35:44.000Z,99017
2022-10-29T09:37:51.000Z,99013
2022-10-29T09:39:17.000Z,99010
2022-10-29T09:41:30.000Z,99010
2022-10-29T09:42:57.000Z,99008
2022-10-29T09:45:03.000Z,99007
2022-10-29T09:46:29.000Z,99006
2022-10-29T09:48:35.000Z,99003
2022-10-29T09:50:02.000Z,99004
2022-10-29T09:52:14.000Z,99003
2022-10-29T09:53:41.000Z,99005
2022-10-29T09:55:47.000Z,99003
2022-10-29T09:57:13.000Z,99007
2022-10-29T09:59:19.000Z,99007
2022-10-29T10:00:46.000Z,99007
2022-10-29T10:02:52.000Z,99006
2022-10-29T10:04:18.000Z,99003
2022-10-29T10:06:25.000Z,99007
2022-10-29T10:07:51.000Z,99002
2022-10-29T10:09:57.000Z,99002
2022-10-29T10:12:48.000Z,98998
2022-10-29T10:14:15.000Z,98997
2022-10-29T10:16:21.000Z,98999
2022-10-29T10:17:48.000Z,98994
2022-10-29T10:19:54.000Z,98991
2022-10-29T10:21:20.000Z,98992
2022-10-29T10:23:26.000Z,98990
2022-10-29T10:24:53.000Z,98992
2022-10-29T10:26:59.000Z,98989
2022-10-29T10:28:26.000Z,98988
2022-10-29T10:30:32.000Z,98987
2022-10-29T10:31:58.000Z,98986
2022-10-29T10:34:04.000Z,98985
2022-10-29T10:35:31.000Z,98981
2022-10-29T10:37:37.000Z,98976
2022-10-29T10:39:04.000Z,98974
2022-10-29T10:41:10.000Z,98969
2022-10-29T10:42:36.000Z,98965
2022-10-29T10:44:42.000Z,98961
2022-10-29T10:46:09.000Z,98964
2022-10-29T10:48:15.000Z,98965
2022-10-29T10:51:06.000Z,98958
2022-10-29T10:52:33.000Z,98952
2022-10-29T10:54:39.000Z,98949
2022-10-29T10:56:06.000Z,98948
2022-10-29T10:58:12.000Z,98947
2022-10-29T10:59:38.000Z,98948
2022-10-29T11:01:44.000Z,98954
2022-10-29T11:03:11.000Z,98951
2022-10-29T11:05:17.000Z,98948
2022-10-29T11:06:44.000Z,98948
2022-10-29T11:08:50.000Z,98949
2022-10-29T11:10:16.000Z,98949
2022-10-29T11:12:22.000Z,98945
2022-10-29T11:13:49.000Z,98945
2022-10-29T11:15:55.000Z,98944
2022-10-29T11:17:22.000Z,98945
2022-10-29T11:19:28.000Z,98947
2022-10-29T11:21:00.000Z,98941
2022-10-29T11:23:06.000Z,98941
2022-10-29T11:24:33.000Z,98942
2022-10-29T11:26:39.000Z,98941
2022-10-29T11:29:30.000Z,98942
2022-10-29T11:30:57.000Z,98941
2022-10-29T11:33:03.000Z,98936
2022-10-29T11:34:30.000Z,98935
2022-10-29T11:36:36.000Z,98935
2022-10-29T11:38:02.000Z,98936
2022-10-29T11:40:09.000Z,98933
2022-10-29T11:41:35.000Z,98930
2022-10-29T11:43:41.000Z,98927
2022-10-29T11:45:08.000Z,98919
2022-10-29T11:47:14.000Z,98921
2022-10-29T11:48:40.000Z,98922
2022-10-29T11:50:46.000Z,98918
2022-10-29T11:52:13.000Z,98917
2022-10-29T11:54:19.000Z,98919
2022-10-29T11:55:45.000Z,98923
2022-10-29T11:57:51.000Z,98927
2022-10-29T11:59:18.000Z,98924
2022-10-29T12:01:24.000Z,98926
2022-10-29T12:02:51.000Z,98922
2022-10-29T12:04:57.000Z,98918
2022-10-29T12:07:48.000Z,98916
2022-10-29T12:09:15.000Z,98915
2022-10-29T12:11:21.000Z,98915
2022-10-29T12:12:47.000Z,98914
2022-10-29T12:14:53.000Z,98911
2022-10-29T12:16:20.000Z,98911
2022-10-29T12:18:26.000Z,98912
2022-10-29T12:19:53.000Z,98907
2022-10-29T12:21:59.000Z,98901
2022-10-29T12:23:25.000Z,98897
2022-10-29T12:25:31.000Z,98900
2022-10-29T12:26:58.000Z,98896
2022-10-29T12:29:04.000Z,98897
2022-10-29T12:30:31.000Z,98898
2022-10-29T12:32:37.000Z,98899
2022-10-29T12:34:03.000Z,98894
2022-10-29T12:36:10.000Z,98896
2022-10-29T12:37:36.000Z,98892
2022-10-29T12:39:42.000Z,98887
2022-10-29T12:41:09.000Z,98887
2022-10-29T12:43:15.000Z,98885
2022-10-29T12:46:06.000Z,98887
2022-10-29T12:47:46.000Z,98888
2022-10-29T12:49:52.000Z,98888
2022-10-29T12:51:19.000Z,98884
2022-10-29T12:53:25.000Z,98881
2022-10-29T12:54:51.000Z,98881
2022-10-29T12:56:57.000Z,98880
2022-10-29T12:58:24.000Z,98877
2022-10-29T13:00:30.000Z,98880
2022-10-29T13:01:56.000Z,98880
2022-10-29T13:04:18.000Z,98875
2022-10-29T13:05:44.000Z,98876
2022-10-29T13:07:51.000Z,98872
2022-10-29T13:09:17.000Z,98869
2022-10-29T13:11:23.000Z,98871
2022-10-29T13:12:50.000Z,98870
2022-10-29T13:14:56.000Z,98871
2022-10-29T13:16:22.000Z,98874
2022-10-29T13:18:28.000Z,98874
2022-10-29T13:19:55.000Z,98877
2022-10-29T13:22:01.000Z,98875
2022-10-29T13:24:52.000Z,98872
2022-10-29T13:26:19.000Z,98870
2022-10-29T13:28:25.000Z,98868
2022-10-29T13:29:51.000Z,98864
2022-10-29T13:31:57.000Z,98865
2022-10-29T13:33:30.000Z,98863
2022-10-29T13:35:36.000Z,98858
2022-10-29T13:37:03.000Z,98857
2022-10-29T13:39:09.000Z,98850
2022-10-29T13:40:36.000Z,98849
2022-10-29T13:42:42.000Z,98848
2022-10-29T13:44:08.000Z,98851
2022-10-29T13:46:14.000Z,98855
2022-10-29T13:47:41.000Z,98857
2022-10-29T13:49:47.000Z,98857
2022-10-29T13:51:13.000Z,98854
2022-10-29T13:53:20.000Z,98857
2022-10-29T13:54:46.000Z,98863
2022-10-29T13:56:52.000Z,98865
2022-10-29T13:58:19.000Z,98866
2022-10-29T14:00:25.000Z,98873
2022-10-29T14:03:16.000Z,98874
2022-10-29T14:04:43.000Z,98873
2022-10-29T14:06:49.000Z,98876
2022-10-29T14:08:15.000Z,98869
2022-10-29T14:10:21.000Z,98875
2022-10-29T14:11:48.000Z,98876
2022-10-29T14:13:54.000Z,98877
2022-10-29T14:15:21.000Z,98873
2022-10-29T14:17:27.000Z,98871
2022-10-29T14:18:53.000Z,98869
2022-10-29T14:21:00.000Z,98873
2022-10-29T14:22:26.000Z,98874
2022-10-29T14:24:32.000Z,98872
2022-10-29T14:25:59.000Z,98872
2022-10-29T14:28:05.000Z,98866
2022-10-29T14:29:31.000Z,98867
2022-10-29T14:31:37.000Z,98868
2022-10-29T14:33:04.000Z,98869
2022-10-29T14:35:10.000Z,98872
2022-10-29T14:36:36.000Z,98869
2022-10-29T14:38:43.000Z,98867
2022-10-29T14:41:34.000Z,98865
2022-10-29T14:43:00.000Z,98861
2022-10-29T14:45:07.000Z,98863
2022-10-29T14:46:34.000Z,98860
2022-10-29T14:48:40.000Z,98859
2022-10-29T14:50:06.000Z,98859
2022-10-29T14:52:12.000Z,98860
2022-10-29T14:53:39.000Z,98862
2022-10-29T14:55:45.000Z,98859
2022-10-29T14:57:11.000Z,98857
2022-10-29T14:59:17.000Z,98861
2022-10-29T15:00:45.000Z,98863
2022-10-29T15:02:51.000Z,98861
2022-10-29T15:04:18.000Z,98863
2022-10-29T15:06:24.000Z,98858
2022-10-29T15:07:51.000Z,98863
2022-10-29T15:09:57.000Z,98859
2022-10-29T15:11:23.000Z,98857
2022-10-29T15:13:29.000Z,98856
2022-10-29T15:14:56.000Z,98855
2022-10-29T15:17:02.000Z,98853
2022-10-29T15:19:53.000Z,98857
2022-10-29T15:21:20.000Z,98859
2022-10-29T15:23:26.000Z,98858
2022-10-29T15:24:52.000Z,98859
2022-10-29T15:26:58.000Z,98860
2022-10-29T15:28:25.000Z,98862
2022-10-29T15:30:31.000Z,98859
2022-10-29T15:31:57.000Z,98856
2022-10-29T15:34:04.000Z,98858
2022-10-29T15:35:30.000Z,98860
2022-10-29T15:37:36.000Z,98858
2022-10-29T15:39:03.000Z,98857
2022-10-29T15:41:09.000Z,98860
2022-10-29T15:42:35.000Z,98857
2022-10-29T15:44:41.000Z,98854
2022-10-29T15:46:08.000Z,98856
2022-10-29T15:48:14.000Z,98854
2022-10-29T15:49:40.000Z,98854
2022-10-29T15:51:46.000Z,98853
2022-10-29T15:53:13.000Z,98854
2022-10-29T15:55:19.000Z,98856
2022-10-29T15:58:17.000Z,98856
2022-10-29T15:59:44.000Z,98857
2022-10-29T16:01:50.000Z,98860
2022-10-29T16:03:16.000Z,98856
2022-10-29T16:05:22.000Z,98857
2022-10-29T16:06:49.000Z,98857
2022-10-29T16:08:55.000Z,98860
2022-10-29T16:10:22.000Z,98861
2022-10-29T16:12:28.000Z,98861
2022-10-29T16:13:54.000Z,98859
2022-10-29T16:16:01.000Z,98863
2022-10-29T16:17:28.000Z,98865
2022-10-29T16:19:34.000Z,98861
2022-10-29T16:21:00.000Z,98866
2022-10-29T16:23:06.000Z,98861
2022-10-29T16:24:33.000Z,98861
2022-10-29T16:26:39.000Z,98855
2022-10-29T16:28:05.000Z,98859
2022-10-29T16:30:12.000Z,98857
2022-10-29T16:31:38.000Z,98860
2022-10-29T16:33:44.000Z,98857
2022-10-29T16:36:36.000Z,98858
2022-10-29T16:38:02.000Z,98854
2022-10-29T16:40:08.000Z,98857
2022-10-29T16:41:35.000Z,98854
2022-10-29T16:43:41.000Z,98851
2022-10-29T16:45:07.000Z,98856
2022-10-29T16:47:13.000Z,98855
2022-10-29T16:48:40.000Z,98852
2022-10-29T16:50:46.000Z,98857
2022-10-29T16:52:12.000Z,98856
2022-10-29T16:54:28.000Z,98853
2022-10-29T16:55:54.000Z,98855
2022-10-29T16:58:00.000Z,98857
2022-10-29T16:59:27.000Z,98858
2022-10-29T17:01:33.000Z,98860
2022-10-29T17:03:00.000Z,98856
2022-10-29T17:05:16.000Z,98857
2022-10-29T17:06:43.000Z,98853
2022-10-29T17:08:49.000Z,98854
2022-10-29T17:10:16.000Z,98852
2022-10-29T17:12:22.000Z,98853
2022-10-29T17:15:13.000Z,98854
2022-10-29T17:16:39.000Z,98855
2022-10-29T17:18:46.000Z,98857
2022-10-29T17:20:12.000Z,98856
2022-10-29T17:22:18.000Z,98857
2022-10-29T17:23:45.000Z,98858
2022-10-29T17:25:51.000Z,98861
2022-10-29T17:27:17.000Z,98854
2022-10-29T17:29:23.000Z,98863
2022-10-29T17:30:50.000Z,98862
2022-10-29T17:32:56.000Z,98862
2022-10-29T17:34:23.000Z,98862
2022-10-29T17:36:29.000Z,98862
2022-10-29T17:37:55.000Z,98864
2022-10-29T17:40:02.000Z,98860
2022-10-29T17:41:34.000Z,98861
2022-10-29T17:43:40.000Z,98861
2022-10-29T17:45:07.000Z,98869
2022-10-29T17:47:13.000Z,98868
2022-10-29T17:48:39.000Z,98868
2022-10-29T17:50:46.000Z,98862
2022-10-29T17:53:36.000Z,98858
2022-10-29T17:55:03.000Z,98860
2022-10-29T17:57:09.000Z,98861
2022-10-29T17:58:36.000Z,98863
2022-10-29T18:00:42.000Z,98865
2022-10-29T18:02:08.000Z,98859
2022-10-29T18:04:14.000Z,98864
2022-10-29T18:05:41.000Z,98860
2022-10-29T18:07:47.000Z,98861
2022-10-29T18:09:14.000Z,98864
2022-10-29T18:11:26.000Z,98868
2022-10-29T18:12:52.000Z,98865
2022-10-29T18:14:58.000Z,98868
2022-10-29T18:16:25.000Z,98868
2022-10-29T18:18:31.000Z,98870
2022-10-29T18:20:14.000Z,98874
2022-10-29T18:22:20.000Z,98873
2022-10-29T18:23:47.000Z,98872
2022-10-29T18:25:53.000Z,98870
2022-10-29T18:27:19.000Z,98869
2022-10-29T18:29:25.000Z,98865
2022-10-29T18:32:16.000Z,98866
2022-10-29T18:33:43.000Z,98865
2022-10-29T18:35:49.000Z,98863
2022-10-29T18:37:16.000Z,98864
2022-10-29T18:39:22.000Z,98863
2022-10-29T18:40:48.000Z,98865
2022-10-29T18:42:54.000Z,98865
2022-10-29T18:44:21.000Z,98865
2022-10-29T18:46:27.000Z,98861
2022-10-29T18:47:53.000Z,98863
2022-10-29T18:50:00.000Z,98866
2022-10-29T18:51:26.000Z,98863
2022-10-29T18:53:33.000Z,98860
2022-10-29T18:54:59.000Z,98859
2022-10-29T18:57:05.000Z,98851
2022-10-29T18:58:32.000Z,98851
2022-10-29T19:00:38.000Z,98853
2022-10-29T19:02:05.000Z,98856
2022-10-29T19:04:11.000Z,98856
2022-10-29T19:05:38.000Z,98853
2022-10-29T19:07:44.000Z,98856
2022-10-29T19:10:35.000Z,98853
2022-10-29T19:12:02.000Z,98852
2022-10-29T19:14:08.000Z,98854
2022-10-29T19:15:34.000Z,98852
2022-10-29T19:17:40.000Z,98858
2022-10-29T19:19:07.000Z,98854
2022-10-29T19:21:14.000Z,98850
2022-10-29T19:22:40.000Z,98854
2022-10-29T19:24:46.000Z,98853
2022-10-29T19:26:13.000Z,98853
2022-10-29T19:28:19.000Z,98851
2022-10-29T19:29:45.000Z,98849
2022-10-29T19:31:51.000Z,98853
2022-10-29T19:33:18.000Z,98852
2022-10-29T19:35:24.000Z,98852
2022-10-29T19:36:51.000Z,98846
2022-10-29T19:38:57.000Z,98846
2022-10-29T19:40:23.000Z,98846
2022-10-29T19:42:29.000Z,98846
2022-10-29T19:43:56.000Z,98844
2022-10-29T19:46:02.000Z,98841
2022-10-29T19:48:53.000Z,98845
2022-10-29T19:50:19.000Z,98839
2022-10-29T19:52:26.000Z,98838
2022-10-29T19:53:52.000Z,98839
2022-10-29T19:55:58.000Z,98836
2022-10-29T19:57:25.000Z,98840
2022-10-29T19:59:31.000Z,98842
2022-10-29T20:00:57.000Z,98841
2022-10-29T20:03:03.000Z,98842
2022-10-29T20:04:30.000Z,98844
2022-10-29T20:06:36.000Z,98843
2022-10-29T20:08:03.000Z,98847
2022-10-29T20:10:09.000Z,98844
2022-10-29T20:11:35.000Z,98846
2022-10-29T20:13:41.000Z,98844
2022-10-29T20:15:08.000Z,98846
2022-10-29T20:17:14.000Z,98848
2022-10-29T20:18:41.000Z,98849
2022-10-29T20:20:47.000Z,98849
2022-10-29T20:22:13.000Z,98845
2022-10-29T20:24:19.000Z,98847
2022-10-29T20:27:10.000Z,98845
2022-10-29T20:28:37.000Z,98846
2022-10-29T20:30:43.000Z,98851
2022-10-29T20:32:10.000Z,98847
2022-10-29T20:34:16.000Z,98848
2022-10-29T20:35:42.000Z,98847
2022-10-29T20:37:48.000Z,98847
2022-10-29T20:39:15.000Z,98850
2022-10-29T20:41:21.000Z,98851
2022-10-29T20:42:47.000Z,98851
2022-10-29T20:44:54.000Z,98852
2022-10-29T20:46:20.000Z,98850
2022-10-29T20:48:26.000Z,98850
2022-10-29T20:49:53.000Z,98851
2022-10-29T20:51:59.000Z,98848
2022-10-29T20:53:25.000Z,98850
2022-10-29T20:55:32.000Z,98854
2022-10-29T20:56:58.000Z,98853
2022-10-29T20:59:04.000Z,98855
2022-10-29T21:00:31.000Z,98853
2022-10-29T21:02:37.000Z,98851
2022-10-29T21:05:28.000Z,98855
2022-10-29T21:06:55.000Z,98854
2022-10-29T21:09:01.000Z,98849
2022-10-29T21:10:27.000Z,98852
2022-10-29T21:12:34.000Z,98847
2022-10-29T21:14:00.000Z,98845
2022-10-29T21:16:06.000Z,98843
2022-10-29T21:17:33.000Z,98845
2022-10-29T21:19:39.000Z,98846
2022-10-29T21:21:05.000Z,98842
2022-10-29T21:23:11.000Z,98846
2022-10-29T21:24:38.000Z,98843
2022-10-29T21:26:48.000Z,98842
2022-10-29T21:28:15.000Z,98838
2022-10-29T21:30:21.000Z,98839
2022-10-29T21:31:48.000Z,98836
2022-10-29T21:33:54.000Z,98833
2022-10-29T21:35:20.000Z,98835
2022-10-29T21:37:26.000Z,98832
2022-10-29T21:38:53.000Z,98833
2022-10-29T21:40:59.000Z,98835
2022-10-29T21:43:50.000Z,98833
2022-10-29T21:45:17.000Z,98831
2022-10-29T21:47:23.000Z,98828
2022-10-29T21:48:49.000Z,98828
2022-10-29T21:50:56.000Z,98826
2022-10-29T21:52:22.000Z,98826
2022-10-29T21:54:28.000Z,98824
2022-10-29T21:55:55.000Z,98826
2022-10-29T21:58:01.000Z,98820
2022-10-29T21:59:27.000Z,98821
2022-10-29T22:01:34.000Z,98818
2022-10-29T22:03:00.000Z,98822
2022-10-29T22:05:10.000Z,98820
2022-10-29T22:06:37.000Z,98819
2022-10-29T22:08:43.000Z,98820
2022-10-29T22:10:09.000Z,98814
2022-10-29T22:12:15.000Z,98818
2022-10-29T22:13:42.000Z,98819
2022-10-29T22:15:48.000Z,98818
2022-10-29T22:17:15.000Z,98820
2022-10-29T22:19:21.000Z,98816
2022-10-29T22:22:12.000Z,98814
2022-10-29T22:23:38.000Z,98820
2022-10-29T22:25:44.000Z,98814
2022-10-29T22:27:11.000Z,98817
2022-10-29T22:29:17.000Z,98814
2022-10-29T22:30:44.000Z,98811
2022-10-29T22:32:50.000Z,98811
2022-10-29T22:34:16.000Z,98808
2022-10-29T22:36:22.000Z,98810
2022-10-29T22:37:49.000Z,98807
2022-10-29T22:39:55.000Z,98807
2022-10-29T22:41:21.000Z,98806
2022-10-29T22:43:27.000Z,98803
2022-10-29T22:44:54.000Z,98803
2022-10-29T22:47:00.000Z,98799
2022-10-29T22:48:26.000Z,98797
2022-10-29T22:50:33.000Z,98796
2022-10-29T22:51:59.000Z,98790
2022-10-29T22:54:07.000Z,98793
2022-10-29T22:55:34.000Z,98787
2022-10-29T22:57:40.000Z,98788
2022-10-29T23:00:31.000Z,98786
2022-10-29T23:01:57.000Z,98784
2022-10-29T23:04:04.000Z,98786
2022-10-29T23:05:30.000Z,98782
2022-10-29T23:07:36.000Z,98784
2022-10-29T23:09:03.000Z,98784
2022-10-29T23:11:09.000Z,98782
2022-10-29T23:12:35.000Z,98781
2022-10-29T23:14:42.000Z,98783
2022-10-29T23:16:08.000Z,98781
2022-10-29T23:18:14.000Z,98784
2022-10-29T23:19:41.000Z,98782
2022-10-29T23:21:47.000Z,98787
2022-10-29T23:23:13.000Z,98783
2022-10-29T23:25:52.000Z,98783
2022-10-29T23:27:18.000Z,98781
2022-10-29T23:29:24.000Z,98783
2022-10-29T23:30:51.000Z,98782
2022-10-29T23:32:57.000Z,98778
2022-10-29T23:34:24.000Z,98780
2022-10-29T23:36:30.000Z,98780